createdAt,value
2019-02-15T00:00:37.790Z,61.90
2019-02-15T00:10:59.795Z,62.40
2019-02-15T00:16:14.205Z,62.70
2019-02-15T00:21:36.905Z,62.90
2019-02-15T00:26:51.633Z,63.10
2019-02-15T00:32:05.937Z,63.40
2019-02-15T00:37:21.237Z,63.60
2019-02-15T00:42:35.771Z,63.70
2019-02-15T00:48:10.303Z,63.90
2019-02-15T00:53:41.886Z,64.10
2019-02-15T00:59:04.704Z,64.30
2019-02-15T01:04:55.066Z,64.40
2019-02-15T01:10:41.199Z,64.70
2019-02-15T01:15:55.611Z,65.20
2019-02-15T01:21:09.972Z,65.20
2019-02-15T01:26:40.987Z,65.30
2019-02-15T01:32:17.629Z,65.60
2019-02-15T01:37:51.005Z,65.70
2019-02-15T01:43:27.021Z,65.90
2019-02-15T01:48:41.317Z,66.20
2019-02-15T01:53:56.232Z,66.60
2019-02-15T01:59:10.880Z,66.70
2019-02-15T02:04:25.810Z,66.90
2019-02-15T02:09:40.405Z,67.00
2019-02-15T02:14:55.054Z,67.10
2019-02-15T02:20:10.759Z,67.20
2019-02-15T02:25:25.827Z,67.40
2019-02-15T02:30:40.607Z,67.70
2019-02-15T02:36:00.337Z,67.80
2019-02-15T02:41:15.015Z,67.90
2019-02-15T02:46:29.498Z,68.20
2019-02-15T02:51:45.442Z,68.40
2019-02-15T02:57:00.094Z,68.50
2019-02-15T03:02:14.312Z,68.70
2019-02-15T03:07:29.037Z,68.80
2019-02-15T03:12:43.476Z,69.10
2019-02-15T03:17:58.025Z,69.20
2019-02-15T03:23:12.648Z,69.40
2019-02-15T03:28:27.026Z,69.50
2019-02-15T03:33:41.602Z,69.70
2019-02-15T03:39:05.398Z,69.80
2019-02-15T03:44:22.447Z,70.10
2019-02-15T03:49:36.162Z,70.20
2019-02-15T03:54:50.470Z,70.40
2019-02-15T04:00:05.345Z,70.60
2019-02-15T04:05:19.687Z,70.70
2019-02-15T04:10:34.050Z,70.90
2019-02-15T04:15:48.855Z,71.00
2019-02-15T04:21:03.664Z,71.20
2019-02-15T04:26:18.253Z,71.20
2019-02-15T04:31:34.961Z,71.40
2019-02-15T04:36:49.238Z,71.50
2019-02-15T04:42:03.735Z,71.60
2019-02-15T04:47:18.277Z,71.80
2019-02-15T04:52:32.808Z,71.80
2019-02-15T04:57:48.622Z,72.00
2019-02-15T05:03:03.255Z,72.10
2019-02-15T05:08:17.901Z,72.20
2019-02-15T05:13:32.505Z,72.30
2019-02-15T05:18:46.992Z,72.50
2019-02-15T05:24:01.638Z,72.60
2019-02-15T05:29:16.202Z,72.70
2019-02-15T05:34:31.051Z,72.90
2019-02-15T05:39:45.095Z,72.90
2019-02-15T05:45:03.747Z,73.10
2019-02-15T05:50:15.651Z,73.30
2019-02-15T05:55:30.059Z,73.40
2019-02-15T06:00:44.120Z,73.40
2019-02-15T06:05:59.219Z,73.50
2019-02-15T06:11:13.866Z,73.80
2019-02-15T06:16:29.913Z,74.00
2019-02-15T06:21:44.438Z,74.10
2019-02-15T06:27:07.151Z,74.10
2019-02-15T06:32:21.567Z,74.20
2019-02-15T06:37:35.671Z,74.50
2019-02-15T06:42:49.836Z,74.60
2019-02-15T06:48:04.274Z,75.40
2019-02-15T06:53:18.899Z,74.90
2019-02-15T06:58:33.321Z,74.90
2019-02-15T07:04:10.081Z,75.30
2019-02-15T07:09:25.613Z,75.30
2019-02-15T07:14:40.282Z,75.50
2019-02-15T07:19:54.699Z,75.70
2019-02-15T07:25:10.314Z,75.80
2019-02-15T07:30:26.383Z,76.00
2019-02-15T07:35:41.134Z,76.20
2019-02-15T07:40:55.044Z,76.40
2019-02-15T07:46:09.353Z,76.70
2019-02-15T07:51:23.980Z,76.90
2019-02-15T07:56:38.867Z,77.30
2019-02-15T08:02:01.315Z,77.60
2019-02-15T08:07:09.435Z,77.80
2019-02-15T08:12:24.458Z,78.20
2019-02-15T08:17:39.083Z,78.60
2019-02-15T08:22:53.310Z,79.30
2019-02-15T08:28:08.142Z,80.10
2019-02-15T08:33:23.080Z,80.90
2019-02-15T08:38:37.471Z,81.10
2019-02-15T08:43:51.769Z,81.40
2019-02-15T08:49:09.366Z,81.60
2019-02-15T08:54:23.593Z,82.00
2019-02-15T08:59:38.134Z,81.70
2019-02-15T09:04:52.336Z,82.20
2019-02-15T09:10:09.276Z,81.90
2019-02-15T09:15:23.645Z,80.00
2019-02-15T09:20:38.171Z,79.00
2019-02-15T09:25:53.820Z,79.00
2019-02-15T09:31:08.375Z,77.90
2019-02-15T09:36:23.142Z,76.60
2019-02-15T09:41:37.785Z,77.80
2019-02-15T09:46:54.450Z,76.60
2019-02-15T09:52:08.953Z,75.60
2019-02-15T09:57:23.604Z,74.80
2019-02-15T10:02:38.182Z,74.50
2019-02-15T10:07:52.795Z,73.90
2019-02-15T10:13:07.688Z,71.80
2019-02-15T10:18:22.440Z,69.30
2019-02-15T10:23:37.061Z,67.50
2019-02-15T10:28:51.588Z,62.90
2019-02-15T10:34:05.699Z,59.80
2019-02-15T10:39:20.075Z,59.10
2019-02-15T10:44:34.511Z,57.90
2019-02-15T10:49:49.422Z,56.30
2019-02-15T10:55:04.091Z,53.60
2019-02-15T11:00:19.439Z,53.40
2019-02-15T11:05:33.692Z,51.90
2019-02-15T11:10:48.391Z,50.00
2019-02-15T11:16:03.153Z,49.30
2019-02-15T11:21:17.869Z,49.80
2019-02-15T11:26:34.132Z,49.60
2019-02-15T11:31:49.679Z,49.20
2019-02-15T11:37:04.526Z,47.80
2019-02-15T11:42:19.060Z,46.10
2019-02-15T11:47:33.803Z,46.50
2019-02-15T11:52:48.341Z,46.50
2019-02-15T11:58:03.406Z,45.30
2019-02-15T12:03:17.477Z,45.00
2019-02-15T12:08:31.863Z,44.30
2019-02-15T12:13:46.683Z,43.50
2019-02-15T12:19:02.153Z,43.40
2019-02-15T12:24:16.017Z,41.00
2019-02-15T12:29:30.564Z,43.60
2019-02-15T12:34:45.386Z,46.20
2019-02-15T12:40:00.007Z,47.60
2019-02-15T12:45:14.443Z,49.00
2019-02-15T12:50:29.143Z,50.40
2019-02-15T12:55:43.591Z,48.40
2019-02-15T13:00:57.951Z,45.40
2019-02-15T13:06:12.295Z,42.00
2019-02-15T13:11:26.975Z,37.70
2019-02-15T13:16:41.608Z,36.80
2019-02-15T13:21:56.127Z,33.10
2019-02-15T13:27:10.589Z,28.90
2019-02-15T13:32:25.390Z,28.70
2019-02-15T13:37:39.730Z,27.50
2019-02-15T13:42:54.191Z,25.60
2019-02-15T13:48:08.843Z,24.50
2019-02-15T13:53:26.255Z,26.10
2019-02-15T13:58:40.666Z,25.80
2019-02-15T14:03:55.066Z,24.50
2019-02-15T14:09:09.906Z,24.80
2019-02-15T14:14:24.510Z,24.30
2019-02-15T14:19:39.085Z,22.40
2019-02-15T14:24:53.674Z,23.60
2019-02-15T14:30:09.315Z,22.70
2019-02-15T14:35:23.791Z,22.70
2019-02-15T14:40:38.655Z,23.50
2019-02-15T14:45:53.154Z,22.10
2019-02-15T14:51:08.855Z,23.20
2019-02-15T15:01:30.478Z,24.40
2019-02-15T15:06:44.876Z,24.30
2019-02-15T15:11:59.515Z,25.90
2019-02-15T15:17:14.517Z,26.80
2019-02-15T15:22:29.199Z,27.70
2019-02-15T15:27:44.633Z,28.20
2019-02-15T15:32:59.142Z,29.20
2019-02-15T15:38:13.601Z,29.50
2019-02-15T15:43:28.391Z,30.70
2019-02-15T15:48:43.064Z,31.40
2019-02-15T15:53:58.022Z,32.80
2019-02-15T15:59:12.704Z,33.00
2019-02-15T16:04:28.364Z,33.50
2019-02-15T16:09:42.808Z,34.10
2019-02-15T16:14:57.222Z,35.40
2019-02-15T16:20:12.974Z,35.40
2019-02-15T16:25:34.997Z,35.90
2019-02-15T16:30:49.512Z,36.80
2019-02-15T16:36:05.362Z,37.70
2019-02-15T16:41:23.715Z,38.60
2019-02-15T16:46:38.441Z,39.10
2019-02-15T16:51:53.023Z,39.70
2019-02-15T16:57:07.472Z,39.20
2019-02-15T17:02:22.009Z,39.80
2019-02-15T17:07:36.518Z,40.30
2019-02-15T17:12:52.706Z,40.70
2019-02-15T17:18:07.359Z,41.10
2019-02-15T17:23:22.560Z,41.40
2019-02-15T17:28:37.374Z,42.00
2019-02-15T17:33:52.070Z,42.00
2019-02-15T17:39:07.360Z,42.60
2019-02-15T17:44:22.605Z,43.20
2019-02-15T17:49:37.287Z,43.80
2019-02-15T17:54:53.052Z,44.60
2019-02-15T18:00:08.567Z,44.90
2019-02-15T18:05:24.415Z,44.70
2019-02-15T18:11:12.174Z,45.30
2019-02-15T18:16:27.161Z,45.80
2019-02-15T18:27:02.096Z,47.80
2019-02-15T18:32:16.776Z,46.90
2019-02-15T18:37:31.508Z,46.60
2019-02-15T18:42:46.468Z,46.20
2019-02-15T18:48:03.165Z,45.90
2019-02-15T18:53:17.895Z,45.70
2019-02-15T18:58:32.543Z,45.40
2019-02-15T19:03:47.076Z,45.10
2019-02-15T19:09:02.243Z,44.90
2019-02-15T19:14:18.205Z,44.70
2019-02-15T19:19:32.834Z,44.60
2019-02-15T19:24:47.339Z,44.50
2019-02-15T19:30:01.990Z,44.40
2019-02-15T19:35:16.781Z,44.40
2019-02-15T19:40:31.696Z,44.30
2019-02-15T19:45:46.392Z,44.30
2019-02-15T19:51:00.801Z,44.40
2019-02-15T19:56:15.583Z,44.30
2019-02-15T20:01:30.268Z,44.30
2019-02-15T20:06:44.674Z,44.30
2019-02-15T20:11:59.140Z,44.40
2019-02-15T20:17:13.701Z,44.40
2019-02-15T20:22:28.340Z,44.60
2019-02-15T20:27:42.710Z,44.50
2019-02-15T20:32:57.465Z,44.50
2019-02-15T20:38:12.241Z,44.60
2019-02-15T20:43:26.723Z,44.60
2019-02-15T20:48:41.303Z,44.70
2019-02-15T20:53:56.032Z,44.90
2019-02-15T20:59:10.921Z,44.90
2019-02-15T21:04:25.716Z,45.00
2019-02-15T21:09:40.291Z,45.10
2019-02-15T21:14:54.861Z,45.20
2019-02-15T21:20:10.626Z,45.40
2019-02-15T21:25:25.049Z,45.40
2019-02-15T21:30:39.513Z,45.40
2019-02-15T21:35:54.234Z,45.50
2019-02-15T21:41:09.381Z,45.60
2019-02-15T21:46:25.465Z,45.60
2019-02-15T21:51:40.451Z,45.70
2019-02-15T21:56:55.057Z,45.70
2019-02-15T22:02:08.927Z,45.70
2019-02-15T22:07:23.975Z,45.70
2019-02-15T22:12:38.523Z,45.80
2019-02-15T22:17:53.004Z,45.90
2019-02-15T22:23:07.577Z,45.90
2019-02-15T22:28:22.919Z,45.90
2019-02-15T22:33:37.981Z,45.90
2019-02-15T22:38:52.556Z,46.10
2019-02-15T22:44:11.597Z,46.00
2019-02-15T22:49:28.006Z,46.00
2019-02-15T22:54:42.384Z,46.10
2019-02-15T23:00:00.980Z,46.10
2019-02-15T23:05:13.394Z,46.20
2019-02-15T23:10:27.554Z,46.20
2019-02-15T23:15:42.004Z,46.20
2019-02-15T23:20:56.839Z,46.30
2019-02-15T23:26:11.217Z,46.40
2019-02-15T23:31:25.674Z,46.50
2019-02-15T23:36:40.127Z,46.40
2019-02-15T23:41:54.561Z,46.40
2019-02-15T23:47:09.086Z,46.50
2019-02-15T23:52:23.614Z,46.50
2019-02-15T23:57:38.424Z,46.60
